Observation data for Andrews on 07/11/2018      Previous  Date       Current Mesonet Observations  Soil Data  Daily Summary Page  Observations in Plain Language
KANS 110505Z 17005KT 23/17 A3015 RMK A01 T02300167  RH  069%=      5-min Rain = 0
KANS 110510Z 17005KT 23/17 A3015 RMK A01 T02300165  RH  068%=      5-min Rain = 0
KANS 110515Z 17005KT 23/16 A3015 RMK A01 T02290163  RH  068%=      5-min Rain = 0
KANS 110520Z 17004KT 23/16 A3015 RMK A01 T02280163  RH  068%=      5-min Rain = 0
KANS 110525Z 17005KT 23/16 A3015 RMK A01 T02260163  RH  069%=      5-min Rain = 0
KANS 110530Z 18005KT 23/16 A3015 RMK A01 T02250161  RH  069%=      5-min Rain = 0
KANS 110535Z 18005KT 22/16 A3015 RMK A01 T02240159  RH  068%=      5-min Rain = 0
KANS 110540Z 17005KT 22/16 A3015 RMK A01 T02220156  RH  068%=      5-min Rain = 0
KANS 110545Z 17005KT 22/15 A3015 RMK A01 T02210153  RH  067%=      5-min Rain = 0
KANS 110550Z 17005KT 22/15 A3015 RMK A01 T02200150  RH  066%=      5-min Rain = 0
KANS 110555Z 17005KT 22/15 A3015 RMK A01 T02200146  RH  064%=      5-min Rain = 0
KANS 110600Z 18005KT 22/15 A3015 RMK A01 T02190145  RH  064%=      5-min Rain = 0
KANS 110605Z 18005KT 22/14 A3015 RMK A01 T02180142  RH  064%=      5-min Rain = 0
KANS 110610Z 18006KT 22/14 A3015 RMK A01 T02170139  RH  062%=      5-min Rain = 0
KANS 110615Z 18006KT 22/13 A3015 RMK A01 T02180134  RH  060%=      5-min Rain = 0
KANS 110620Z 18006KT 22/13 A3015 RMK A01 T02190131  RH  058%=      5-min Rain = 0
KANS 110625Z 18006KT 22/13 A3015 RMK A01 T02210128  RH  057%=      5-min Rain = 0
KANS 110630Z 18006KT 22/13 A3015 RMK A01 T02230126  RH  055%=      5-min Rain = 0
KANS 110635Z 18006KT 22/13 A3014 RMK A01 T02240125  RH  054%=      5-min Rain = 0
KANS 110640Z 18006KT 22/13 A3014 RMK A01 T02240125  RH  054%=      5-min Rain = 0
KANS 110645Z 18006KT 22/13 A3014 RMK A01 T02240126  RH  055%=      5-min Rain = 0
KANS 110650Z 18005KT 22/13 A3014 RMK A01 T02220127  RH  056%=      5-min Rain = 0
KANS 110655Z 18005KT 22/13 A3014 RMK A01 T02210129  RH  057%=      5-min Rain = 0
KANS 110700Z 19005KT 22/13 A3014 RMK A01 T02190130  RH  058%=      5-min Rain = 0
KANS 110705Z 19005KT 22/13 A3014 RMK A01 T02180131  RH  059%=      5-min Rain = 0
KANS 110710Z 19005KT 22/13 A3014 RMK A01 T02170132  RH  060%=      5-min Rain = 0
KANS 110715Z 18005KT 22/13 A3014 RMK A01 T02160132  RH  060%=      5-min Rain = 0
KANS 110720Z 18005KT 22/13 A3014 RMK A01 T02160131  RH  060%=      5-min Rain = 0
KANS 110725Z 18005KT 22/13 A3014 RMK A01 T02150132  RH  060%=      5-min Rain = 0
KANS 110730Z 18005KT 21/13 A3014 RMK A01 T02130132  RH  061%=      5-min Rain = 0
KANS 110735Z 18005KT 21/13 A3014 RMK A01 T02120132  RH  062%=      5-min Rain = 0
KANS 110740Z 18005KT 21/13 A3014 RMK A01 T02120132  RH  062%=      5-min Rain = 0
KANS 110745Z 18006KT 21/13 A3014 RMK A01 T02120131  RH  061%=      5-min Rain = 0
KANS 110750Z 18006KT 21/13 A3014 RMK A01 T02120131  RH  061%=      5-min Rain = 0
KANS 110755Z 18005KT 21/13 A3014 RMK A01 T02110131  RH  061%=      5-min Rain = 0
KANS 110800Z 17005KT 21/13 A3014 RMK A01 T02110131  RH  061%=      5-min Rain = 0
KANS 110805Z 17004KT 21/13 A3014 RMK A01 T02100131  RH  061%=      5-min Rain = 0
KANS 110810Z 17003KT 21/13 A3014 RMK A01 T02100131  RH  062%=      5-min Rain = 0
KANS 110815Z 18003KT 21/13 A3014 RMK A01 T02090130  RH  061%=      5-min Rain = 0
KANS 110820Z 18003KT 21/13 A3014 RMK A01 T02080133  RH  063%=      5-min Rain = 0
KANS 110825Z 17004KT 21/13 A3013 RMK A01 T02060133  RH  064%=      5-min Rain = 0
KANS 110830Z 17004KT 21/14 A3013 RMK A01 T02050135  RH  065%=      5-min Rain = 0
KANS 110835Z 17004KT 20/14 A3013 RMK A01 T02030136  RH  066%=      5-min Rain = 0
KANS 110840Z 17004KT 20/14 A3013 RMK A01 T02020136  RH  067%=      5-min Rain = 0
KANS 110845Z 17004KT 20/14 A3013 RMK A01 T02010136  RH  067%=      5-min Rain = 0
KANS 110850Z 16003KT 20/14 A3013 RMK A01 T02010136  RH  068%=      5-min Rain = 0
KANS 110855Z 14003KT 20/14 A3013 RMK A01 T02010136  RH  068%=      5-min Rain = 0
KANS 110900Z 13003KT 20/14 A3013 RMK A01 T02000138  RH  069%=      5-min Rain = 0
KANS 110905Z 12003KT 20/14 A3013 RMK A01 T02000137  RH  069%=      5-min Rain = 0
KANS 110910Z 13004KT 20/14 A3013 RMK A01 T01990138  RH  069%=      5-min Rain = 0
KANS 110915Z 13004KT 20/14 A3013 RMK A01 T01980138  RH  070%=      5-min Rain = 0
KANS 110920Z 13005KT 20/14 A3012 RMK A01 T01980135  RH  068%=      5-min Rain = 0
KANS 110925Z 12005KT 20/13 A3012 RMK A01 T01980134  RH  068%=      5-min Rain = 0
KANS 110930Z 12005KT 20/13 A3012 RMK A01 T01980131  RH  067%=      5-min Rain = 0
KANS 110935Z 12004KT 20/13 A3012 RMK A01 T01990130  RH  066%=      5-min Rain = 0
KANS 110940Z 13005KT 20/13 A3012 RMK A01 T01990129  RH  066%=      5-min Rain = 0
KANS 110945Z 13006KT 20/13 A3012 RMK A01 T01990129  RH  065%=      5-min Rain = 0
KANS 110950Z 14005KT 20/13 A3012 RMK A01 T02000129  RH  065%=      5-min Rain = 0
KANS 110955Z 14006KT 20/13 A3012 RMK A01 T02020129  RH  064%=      5-min Rain = 0
KANS 111000Z 15006KT 20/13 A3012 RMK A01 T02020130  RH  064%=      5-min Rain = 0
KANS 111005Z 15006KT 20/13 A3012 RMK A01 T02030131  RH  064%=      5-min Rain = 0
KANS 111010Z 15006KT 20/13 A3012 RMK A01 T02030131  RH  065%=      5-min Rain = 0
KANS 111015Z 15006KT 20/13 A3011 RMK A01 T02030132  RH  065%=      5-min Rain = 0
KANS 111020Z 15006KT 20/13 A3012 RMK A01 T02030132  RH  065%=      5-min Rain = 0
KANS 111025Z 15006KT 20/13 A3012 RMK A01 T02020132  RH  065%=      5-min Rain = 0
KANS 111030Z 15006KT 20/13 A3012 RMK A01 T02010133  RH  066%=      5-min Rain = 0
KANS 111035Z 15006KT 20/13 A3012 RMK A01 T02000134  RH  067%=      5-min Rain = 0
KANS 111040Z 15005KT 20/14 A3012 RMK A01 T02000135  RH  067%=      5-min Rain = 0
KANS 111045Z 15005KT 20/14 A3012 RMK A01 T01990135  RH  068%=      5-min Rain = 0
KANS 111050Z 14005KT 20/14 A3012 RMK A01 T01990136  RH  068%=      5-min Rain = 0
KANS 111055Z 14005KT 20/14 A3012 RMK A01 T01990136  RH  069%=      5-min Rain = 0
KANS 111100Z 13005KT 20/14 A3012 RMK A01 T01980137  RH  069%=      5-min Rain = 0
KANS 111105Z 13004KT 20/14 A3012 RMK A01 T01980137  RH  069%=      5-min Rain = 0
KANS 111110Z 12004KT 20/14 A3012 RMK A01 T01980138  RH  070%=      5-min Rain = 0
KANS 111115Z 12004KT 20/14 A3012 RMK A01 T01970138  RH  070%=      5-min Rain = 0
KANS 111120Z 12005KT 20/14 A3012 RMK A01 T01970138  RH  070%=      5-min Rain = 0
KANS 111125Z 12005KT 20/14 A3012 RMK A01 T01960139  RH  071%=      5-min Rain = 0
KANS 111130Z 12004KT 20/14 A3013 RMK A01 T01960139  RH  071%=      5-min Rain = 0
KANS 111135Z 12004KT 20/14 A3013 RMK A01 T01950139  RH  072%=      5-min Rain = 0
KANS 111140Z 12004KT 19/14 A3013 RMK A01 T01940139  RH  072%=      5-min Rain = 0
KANS 111145Z 12004KT 19/14 A3013 RMK A01 T01940139  RH  072%=      5-min Rain = 0
KANS 111150Z 12005KT 19/14 A3014 RMK A01 T01930139  RH  072%=      5-min Rain = 0
KANS 111155Z 12005KT 19/14 A3014 RMK A01 T01920139  RH  073%=      5-min Rain = 0
KANS 111200Z 12005KT 19/14 A3014 RMK A01 T01920140  RH  073%=      5-min Rain = 0
KANS 111205Z 13005KT 19/14 A3014 RMK A01 T01920140  RH  074%=      5-min Rain = 0
KANS 111210Z 13005KT 19/14 A3014 RMK A01 T01920141  RH  074%=      5-min Rain = 0
KANS 111215Z 13005KT 19/14 A3015 RMK A01 T01920141  RH  074%=      5-min Rain = 0
KANS 111220Z 13005KT 19/14 A3015 RMK A01 T01940142  RH  073%=      5-min Rain = 0
KANS 111225Z 13005KT 20/14 A3015 RMK A01 T01960143  RH  073%=      5-min Rain = 0
KANS 111230Z 13005KT 20/14 A3015 RMK A01 T01980144  RH  072%=      5-min Rain = 0
KANS 111235Z 13005KT 20/15 A3015 RMK A01 T02010145  RH  072%=      5-min Rain = 0
KANS 111240Z 13005KT 20/15 A3015 RMK A01 T02030145  RH  071%=      5-min Rain = 0
KANS 111245Z 13005KT 21/15 A3015 RMK A01 T02050146  RH  070%=      5-min Rain = 0
KANS 111250Z 13005KT 21/15 A3015 RMK A01 T02080147  RH  070%=      5-min Rain = 0
KANS 111255Z 14006KT 21/15 A3015 RMK A01 T02110148  RH  069%=      5-min Rain = 0
KANS 111300Z 14007KT 21/15 A3015 RMK A01 T02140149  RH  068%=      5-min Rain = 0
KANS 111305Z 14007KT 22/15 A3015 RMK A01 T02160150  RH  067%=      5-min Rain = 0
KANS 111310Z 15006KT 22/15 A3015 RMK A01 T02190152  RH  067%=      5-min Rain = 0
KANS 111315Z 15006KT 22/15 A3015 RMK A01 T02220153  RH  066%=      5-min Rain = 0
KANS 111320Z 15007KT 23/15 A3015 RMK A01 T02250154  RH  065%=      5-min Rain = 0
KANS 111325Z 15008KT 23/15 A3015 RMK A01 T02270154  RH  065%=      5-min Rain = 0
KANS 111330Z 16007KT 23/16 A3015 RMK A01 T02310157  RH  065%=      5-min Rain = 0
KANS 111335Z 16009KT 23/16 A3016 RMK A01 T02340157  RH  063%=      5-min Rain = 0
KANS 111340Z 16008KT 24/16 A3016 RMK A01 T02360158  RH  063%=      5-min Rain = 0
KANS 111345Z 16009G14KT 24/16 A3016 RMK A01 T02390159  RH  062%=      5-min Rain = 0
KANS 111350Z 17009KT 24/16 A3016 RMK A01 T02410160  RH  062%=      5-min Rain = 0
KANS 111355Z 17010KT 24/16 A3016 RMK A01 T02420159  RH  061%=      5-min Rain = 0
KANS 111400Z 17011G16KT 25/16 A3016 RMK A01 T02450160  RH  061%=      5-min Rain = 0
KANS 111405Z 16010KT 25/16 A3016 RMK A01 T02450160  RH  061%=      5-min Rain = 0
KANS 111410Z 16011KT 25/16 A3016 RMK A01 T02470161  RH  060%=      5-min Rain = 0
KANS 111415Z 17008G13KT 25/16 A3016 RMK A01 T02490162  RH  060%=      5-min Rain = 0
KANS 111420Z 16011KT 25/16 A3016 RMK A01 T02520162  RH  059%=      5-min Rain = 0
KANS 111425Z 17010KT 25/16 A3016 RMK A01 T02540163  RH  058%=      5-min Rain = 0
KANS 111430Z 16011KT 26/16 A3016 RMK A01 T02570161  RH  056%=      5-min Rain = 0
KANS 111435Z 17009G15KT 26/16 A3016 RMK A01 T02600161  RH  056%=      5-min Rain = 0
KANS 111440Z 17012KT 26/16 A3016 RMK A01 T02630160  RH  054%=      5-min Rain = 0
KANS 111445Z 19010G15KT 26/16 A3016 RMK A01 T02620161  RH  055%=      5-min Rain = 0
KANS 111450Z 18009KT 27/16 A3016 RMK A01 T02650162  RH  054%=      5-min Rain = 0
KANS 111455Z 18010KT 27/16 A3016 RMK A01 T02670162  RH  054%=      5-min Rain = 0
KANS 111500Z 18010G15KT 27/16 A3016 RMK A01 T02680161  RH  053%=      5-min Rain = 0
KANS 111505Z 17011KT 27/16 A3016 RMK A01 T02680159  RH  053%=      5-min Rain = 0
KANS 111510Z 18011G16KT 27/16 A3016 RMK A01 T02680158  RH  052%=      5-min Rain = 0
KANS 111515Z 18012KT 27/16 A3016 RMK A01 T02700160  RH  052%=      5-min Rain = 0
KANS 111520Z 17011G17KT 27/16 A3016 RMK A01 T02710159  RH  052%=      5-min Rain = 0
KANS 111525Z 17012G18KT 27/16 A3016 RMK A01 T02710158  RH  051%=      5-min Rain = 0
KANS 111530Z 19012KT 27/16 A3016 RMK A01 T02710159  RH  052%=      5-min Rain = 0
KANS 111535Z 19010G17KT 27/16 A3016 RMK A01 T02700160  RH  052%=      5-min Rain = 0
KANS 111540Z 18011KT 27/16 A3016 RMK A01 T02740159  RH  051%=      5-min Rain = 0
KANS 111545Z 19010G15KT 28/16 A3016 RMK A01 T02780160  RH  050%=      5-min Rain = 0
KANS 111550Z 18010G15KT 28/16 A3016 RMK A01 T02780159  RH  050%=      5-min Rain = 0
KANS 111555Z 18011G16KT 28/16 A3016 RMK A01 T02810158  RH  048%=      5-min Rain = 0
KANS 111600Z 19012G17KT 28/16 A3016 RMK A01 T02770157  RH  049%=      5-min Rain = 0
KANS 111605Z 17010KT 28/16 A3016 RMK A01 T02790158  RH  049%=      5-min Rain = 0
KANS 111610Z 18010KT 28/16 A3016 RMK A01 T02810158  RH  048%=      5-min Rain = 0
KANS 111615Z 19010G18KT 29/16 A3015 RMK A01 T02850158  RH  047%=      5-min Rain = 0
KANS 111620Z 18011KT 29/16 A3015 RMK A01 T02850158  RH  047%=      5-min Rain = 0
KANS 111625Z 18011G17KT 29/16 A3016 RMK A01 T02850157  RH  047%=      5-min Rain = 0
KANS 111630Z 18010G16KT 29/16 A3015 RMK A01 T02860158  RH  047%=      5-min Rain = 0
KANS 111635Z 19010G15KT 29/16 A3015 RMK A01 T02880157  RH  046%=      5-min Rain = 0
KANS 111640Z 19012KT 29/16 A3015 RMK A01 T02890155  RH  045%=      5-min Rain = 0
KANS 111645Z 18009G14KT 29/16 A3015 RMK A01 T02900158  RH  046%=      5-min Rain = 0
KANS 111650Z 19010G15KT 30/16 A3015 RMK A01 T02950158  RH  044%=      5-min Rain = 0
KANS 111655Z 19009G15KT 30/16 A3015 RMK A01 T02970159  RH  044%=      5-min Rain = 0
KANS 111700Z 20011G16KT 30/15 A3015 RMK A01 T02970154  RH  043%=      5-min Rain = 0
KANS 111705Z 18010KT 30/16 A3015 RMK A01 T03000155  RH  042%=      5-min Rain = 0
KANS 111710Z 18010G15KT 30/15 A3015 RMK A01 T03010152  RH  041%=      5-min Rain = 0
KANS 111715Z 19011G18KT 30/15 A3015 RMK A01 T03010151  RH  041%=      5-min Rain = 0
KANS 111720Z 19010KT 30/15 A3015 RMK A01 T03010149  RH  040%=      5-min Rain = 0
KANS 111725Z 19009G14KT 30/15 A3015 RMK A01 T03000148  RH  040%=      5-min Rain = 0
KANS 111730Z 20009G15KT 30/15 A3015 RMK A01 T03040149  RH  040%=      5-min Rain = 0
KANS 111735Z 18010G17KT 30/15 A3015 RMK A01 T03040146  RH  039%=      5-min Rain = 0
KANS 111740Z 17009KT 31/15 A3015 RMK A01 T03050148  RH  039%=      5-min Rain = 0
KANS 111745Z 18010G17KT 31/15 A3014 RMK A01 T03090146  RH  038%=      5-min Rain = 0
KANS 111750Z 19009G17KT 31/14 A3014 RMK A01 T03060144  RH  038%=      5-min Rain = 0
KANS 111755Z 19007G13KT 31/14 A3014 RMK A01 T03090142  RH  037%=      5-min Rain = 0
KANS 111800Z 19007G13KT 31/14 A3014 RMK A01 T03100142  RH  037%=      5-min Rain = 0
KANS 111805Z 19008KT 31/14 A3013 RMK A01 T03100140  RH  036%=      5-min Rain = 0
KANS 111810Z 19009G14KT 31/14 A3013 RMK A01 T03080135  RH  035%=      5-min Rain = 0
KANS 111815Z 15008G14KT 31/13 A3013 RMK A01 T03130132  RH  034%=      5-min Rain = 0
KANS 111820Z 17011G17KT 32/13 A3013 RMK A01 T03150130  RH  033%=      5-min Rain = 0
KANS 111825Z 17008KT 32/13 A3013 RMK A01 T03150128  RH  032%=      5-min Rain = 0
KANS 111830Z 18010KT 32/13 A3013 RMK A01 T03160133  RH  034%=      5-min Rain = 0
KANS 111835Z 16009G15KT 31/13 A3012 RMK A01 T03100131  RH  034%=      5-min Rain = 0
KANS 111840Z 17010G16KT 32/13 A3012 RMK A01 T03210128  RH  031%=      5-min Rain = 0
KANS 111845Z 17010KT 32/12 A3012 RMK A01 T03200117  RH  029%=      5-min Rain = 0
KANS 111850Z 17009G15KT 32/13 A3012 RMK A01 T03180125  RH  032%=      5-min Rain = 0
KANS 111855Z 19010KT 32/12 A3012 RMK A01 T03170124  RH  031%=      5-min Rain = 0
KANS 111900Z 15008G14KT 32/12 A3011 RMK A01 T03150123  RH  032%=      5-min Rain = 0
KANS 111905Z 19010G15KT 32/12 A3011 RMK A01 T03170121  RH  031%=      5-min Rain = 0
KANS 111910Z 19010G16KT 31/12 A3011 RMK A01 T03140118  RH  031%=      5-min Rain = 0
KANS 111915Z 18006G11KT 32/12 A3011 RMK A01 T03180123  RH  031%=      5-min Rain = 0
KANS 111920Z 19011G16KT 32/12 A3011 RMK A01 T03190121  RH  030%=      5-min Rain = 0
KANS 111925Z 17008G15KT 31/12 A3011 RMK A01 T03140118  RH  031%=      5-min Rain = 0
KANS 111930Z 17008G13KT 31/12 A301 RMK A01 T03130119  RH  031%=      5-min Rain = 0
KANS 111935Z 16009G14KT 31/12 A301 RMK A01 T03110122  RH  032%=      5-min Rain = 0
KANS 111940Z 16010KT 31/12 A301 RMK A01 T03110117  RH  031%=      5-min Rain = 0
KANS 111945Z 19011G16KT 32/12 A301 RMK A01 T03150117  RH  030%=      5-min Rain = 0
KANS 111950Z 19010G16KT 32/12 A3009 RMK A01 T03190119  RH  030%=      5-min Rain = 0
KANS 111955Z 18008G13KT 32/12 A3009 RMK A01 T03190122  RH  030%=      5-min Rain = 0
KANS 112000Z 18010KT 33/13 A3009 RMK A01 T03280125  RH  030%=      5-min Rain = 0
KANS 112005Z 18012G17KT 33/12 A3009 RMK A01 T03340121  RH  028%=      5-min Rain = 0
KANS 112010Z 19012G19KT 33/12 A3008 RMK A01 T03320120  RH  028%=      5-min Rain = 0
KANS 112015Z 20011G17KT 33/12 A3008 RMK A01 T03330121  RH  028%=      5-min Rain = 0
KANS 112020Z 20011G16KT 33/12 A3008 RMK A01 T03320122  RH  028%=      5-min Rain = 0
KANS 112025Z 19010G16KT 33/12 A3008 RMK A01 T03300123  RH  029%=      5-min Rain = 0
KANS 112030Z 18011G18KT 33/12 A3008 RMK A01 T03300124  RH  029%=      5-min Rain = 0
KANS 112035Z 19012KT 33/12 A3007 RMK A01 T03290122  RH  029%=      5-min Rain = 0
KANS 112040Z 16010G17KT 33/12 A3007 RMK A01 T03290122  RH  029%=      5-min Rain = 0
KANS 112045Z 18011G20KT 33/12 A3007 RMK A01 T03270123  RH  030%=      5-min Rain = 0
KANS 112050Z 18013G18KT 32/12 A3006 RMK A01 T03230120  RH  029%=      5-min Rain = 0
KANS 112055Z 18009G15KT 32/12 A3006 RMK A01 T03220119  RH  030%=      5-min Rain = 0
KANS 112100Z 18010G18KT 33/12 A3006 RMK A01 T03270119  RH  029%=      5-min Rain = 0
KANS 112105Z 19011G16KT 33/12 A3006 RMK A01 T03290118  RH  028%=      5-min Rain = 0
KANS 112110Z 15009G14KT 33/12 A3005 RMK A01 T03330120  RH  028%=      5-min Rain = 0
KANS 112115Z 18010G16KT 34/12 A3005 RMK A01 T03360119  RH  027%=      5-min Rain = 0
KANS 112120Z 19010G18KT 34/12 A3005 RMK A01 T03370121  RH  027%=      5-min Rain = 0
KANS 112125Z 19011G17KT 34/12 A3005 RMK A01 T03360117  RH  027%=      5-min Rain = 0
KANS 112130Z 16010G17KT 34/12 A3005 RMK A01 T03360116  RH  027%=      5-min Rain = 0
KANS 112135Z 17010G16KT 34/11 A3005 RMK A01 T03360114  RH  026%=      5-min Rain = 0
KANS 112140Z 16011G18KT 34/12 A3004 RMK A01 T03370118  RH  027%=      5-min Rain = 0
KANS 112145Z 17010KT 34/11 A3004 RMK A01 T03370114  RH  026%=      5-min Rain = 0
KANS 112150Z 19011G17KT 34/12 A3004 RMK A01 T03350117  RH  027%=      5-min Rain = 0
KANS 112155Z 19012G18KT 34/12 A3004 RMK A01 T03350117  RH  027%=      5-min Rain = 0
KANS 112200Z 19010G15KT 33/12 A3004 RMK A01 T03340115  RH  027%=      5-min Rain = 0
KANS 112205Z 19009G17KT 33/12 A3004 RMK A01 T03340116  RH  027%=      5-min Rain = 0
KANS 112210Z 19011KT 34/12 A3003 RMK A01 T03350119  RH  027%=      5-min Rain = 0
KANS 112215Z 19012G17KT 34/12 A3003 RMK A01 T03350116  RH  027%=      5-min Rain = 0
KANS 112220Z 18011G17KT 34/12 A3003 RMK A01 T03350117  RH  027%=      5-min Rain = 0
KANS 112225Z 17011G18KT 33/12 A3003 RMK A01 T03330117  RH  027%=      5-min Rain = 0
KANS 112230Z 20011G18KT 34/12 A3003 RMK A01 T03350118  RH  027%=      5-min Rain = 0
KANS 112235Z 17010G17KT 34/11 A3003 RMK A01 T03360114  RH  026%=      5-min Rain = 0
KANS 112240Z 18010G17KT 34/11 A3003 RMK A01 T03360111  RH  026%=      5-min Rain = 0
KANS 112245Z 18008G16KT 34/12 A3003 RMK A01 T03380117  RH  027%=      5-min Rain = 0
KANS 112250Z 16012KT 34/12 A3003 RMK A01 T03380119  RH  027%=      5-min Rain = 0
KANS 112255Z 19012G19KT 34/12 A3003 RMK A01 T03370118  RH  027%=      5-min Rain = 0
KANS 112300Z 18012KT 34/12 A3003 RMK A01 T03350117  RH  027%=      5-min Rain = 0
KANS 112305Z 17012G19KT 34/12 A3003 RMK A01 T03350117  RH  027%=      5-min Rain = 0
KANS 112310Z 16011G17KT 34/12 A3003 RMK A01 T03350116  RH  027%=      5-min Rain = 0
KANS 112315Z 17009G14KT 34/12 A3003 RMK A01 T03370116  RH  027%=      5-min Rain = 0
KANS 112320Z 18012G17KT 34/11 A3003 RMK A01 T03350113  RH  026%=      5-min Rain = 0
KANS 112325Z 18009KT 33/11 A3002 RMK A01 T03330113  RH  027%=      5-min Rain = 0
KANS 112330Z 19010G15KT 34/12 A3002 RMK A01 T03350116  RH  027%=      5-min Rain = 0
KANS 112335Z 18010KT 33/12 A3002 RMK A01 T03340115  RH  027%=      5-min Rain = 0
KANS 112340Z 19010G16KT 33/12 A3002 RMK A01 T03330115  RH  027%=      5-min Rain = 0
KANS 112345Z 18010G15KT 33/12 A3002 RMK A01 T03340115  RH  027%=      5-min Rain = 0
KANS 112350Z 18010G15KT 33/11 A3002 RMK A01 T03340114  RH  027%=      5-min Rain = 0
KANS 112355Z 17010G18KT 33/12 A3002 RMK A01 T03340116  RH  027%=      5-min Rain = 0
KANS 120000Z 18011KT 33/12 A3002 RMK A01 T03320116  RH  027%=      5-min Rain = 0
KANS 120005Z 19010G16KT 33/12 A3002 RMK A01 T03310115  RH  027%=      5-min Rain = 0
KANS 120010Z 17011KT 33/12 A3002 RMK A01 T03310116  RH  027%=      5-min Rain = 0
KANS 120015Z 18011KT 33/12 A3002 RMK A01 T03300115  RH  027%=      5-min Rain = 0
KANS 120020Z 18010G15KT 33/11 A3002 RMK A01 T03280114  RH  027%=      5-min Rain = 0
KANS 120025Z 16009G14KT 33/11 A3002 RMK A01 T03290113  RH  027%=      5-min Rain = 0
KANS 120030Z 17010G17KT 33/11 A3002 RMK A01 T03260111  RH  027%=      5-min Rain = 0
KANS 120035Z 17010G15KT 33/11 A3002 RMK A01 T03250113  RH  028%=      5-min Rain = 0
KANS 120040Z 18009G14KT 33/11 A3003 RMK A01 T03250112  RH  028%=      5-min Rain = 0
KANS 120045Z 17009G14KT 32/11 A3003 RMK A01 T03240113  RH  028%=      5-min Rain = 0
KANS 120050Z 18010G15KT 32/11 A3003 RMK A01 T03210112  RH  028%=      5-min Rain = 0
KANS 120055Z 18009G14KT 32/11 A3003 RMK A01 T03170112  RH  029%=      5-min Rain = 0
KANS 120100Z 18009KT 32/11 A3003 RMK A01 T03150112  RH  029%=      5-min Rain = 0
KANS 120105Z 18009G14KT 31/11 A3003 RMK A01 T03130112  RH  030%=      5-min Rain = 0
KANS 120110Z 17008G13KT 31/11 A3004 RMK A01 T03120112  RH  030%=      5-min Rain = 0
KANS 120115Z 17008G13KT 31/11 A3004 RMK A01 T03110113  RH  030%=      5-min Rain = 0
KANS 120120Z 17008G13KT 31/11 A3004 RMK A01 T03100113  RH  030%=      5-min Rain = 0
KANS 120125Z 17007KT 31/11 A3004 RMK A01 T03090113  RH  031%=      5-min Rain = 0
KANS 120130Z 17007KT 31/11 A3004 RMK A01 T03070113  RH  031%=      5-min Rain = 0
KANS 120135Z 16006KT 31/11 A3004 RMK A01 T03060113  RH  031%=      5-min Rain = 0
KANS 120140Z 16006KT 30/11 A3004 RMK A01 T03040112  RH  031%=      5-min Rain = 0
KANS 120145Z 16007KT 30/11 A3004 RMK A01 T03030112  RH  031%=      5-min Rain = 0
KANS 120150Z 17007KT 30/11 A3004 RMK A01 T03020112  RH  031%=      5-min Rain = 0
KANS 120155Z 16006KT 30/11 A3004 RMK A01 T03000112  RH  032%=      5-min Rain = 0
KANS 120200Z 17006KT 30/11 A3004 RMK A01 T02980112  RH  032%=      5-min Rain = 0
KANS 120205Z 17006KT 30/11 A3004 RMK A01 T02960112  RH  033%=      5-min Rain = 0
KANS 120210Z 16005KT 29/11 A3004 RMK A01 T02940113  RH  033%=      5-min Rain = 0
KANS 120215Z 16005KT 29/11 A3004 RMK A01 T02910113  RH  034%=      5-min Rain = 0
KANS 120220Z 16005KT 29/11 A3004 RMK A01 T02890113  RH  034%=      5-min Rain = 0
KANS 120225Z 15005KT 29/11 A3005 RMK A01 T02850114  RH  035%=      5-min Rain = 0
KANS 120230Z 15005KT 28/12 A3005 RMK A01 T02820115  RH  036%=      5-min Rain = 0
KANS 120235Z 15005KT 28/12 A3005 RMK A01 T02800117  RH  037%=      5-min Rain = 0
KANS 120240Z 16005KT 28/12 A3006 RMK A01 T02780118  RH  038%=      5-min Rain = 0
KANS 120245Z 15006KT 28/12 A3006 RMK A01 T02770119  RH  038%=      5-min Rain = 0
KANS 120250Z 16006KT 28/12 A3006 RMK A01 T02760118  RH  038%=      5-min Rain = 0
KANS 120255Z 15006KT 28/12 A3006 RMK A01 T02760118  RH  038%=      5-min Rain = 0
KANS 120300Z 15006KT 28/12 A3006 RMK A01 T02750117  RH  038%=      5-min Rain = 0
KANS 120305Z 16006KT 28/12 A3007 RMK A01 T02750116  RH  038%=      5-min Rain = 0
KANS 120310Z 16006KT 27/12 A3007 RMK A01 T02740116  RH  038%=      5-min Rain = 0
KANS 120315Z 16006KT 27/11 A3007 RMK A01 T02740114  RH  038%=      5-min Rain = 0
KANS 120320Z 16006KT 27/11 A3008 RMK A01 T02740114  RH  038%=      5-min Rain = 0
KANS 120325Z 16006KT 27/11 A3008 RMK A01 T02730114  RH  038%=      5-min Rain = 0
KANS 120330Z 15006KT 27/11 A3008 RMK A01 T02720114  RH  038%=      5-min Rain = 0
KANS 120335Z 15006KT 27/12 A3008 RMK A01 T02700115  RH  039%=      5-min Rain = 0
KANS 120340Z 15006KT 27/11 A3008 RMK A01 T02690114  RH  039%=      5-min Rain = 0
KANS 120345Z 15006KT 27/11 A3008 RMK A01 T02690114  RH  039%=      5-min Rain = 0
KANS 120350Z 16006KT 27/11 A3008 RMK A01 T02680114  RH  039%=      5-min Rain = 0
KANS 120355Z 16006KT 27/11 A3009 RMK A01 T02690114  RH  039%=      5-min Rain = 0
KANS 120400Z 16006KT 27/11 A3009 RMK A01 T02690113  RH  039%=      5-min Rain = 0
KANS 120405Z 16005KT 27/11 A3009 RMK A01 T02680114  RH  039%=      5-min Rain = 0
KANS 120410Z 15006KT 27/11 A3009 RMK A01 T02660114  RH  039%=      5-min Rain = 0
KANS 120415Z 16006KT 27/12 A3009 RMK A01 T02650115  RH  040%=      5-min Rain = 0
KANS 120420Z 16006KT 26/12 A3009 RMK A01 T02640115  RH  040%=      5-min Rain = 0
KANS 120425Z 16006KT 26/12 A3009 RMK A01 T02630115  RH  040%=      5-min Rain = 0
KANS 120430Z 16006KT 26/12 A301 RMK A01 T02620115  RH  041%=      5-min Rain = 0
KANS 120435Z 16006KT 26/12 A301 RMK A01 T02610115  RH  041%=      5-min Rain = 0
KANS 120440Z 16005KT 26/12 A301 RMK A01 T02600115  RH  041%=      5-min Rain = 0
KANS 120445Z 16005KT 26/12 A301 RMK A01 T02590115  RH  042%=      5-min Rain = 0
KANS 120450Z 16006KT 26/12 A3011 RMK A01 T02580115  RH  042%=      5-min Rain = 0
KANS 120455Z 16006KT 26/12 A3011 RMK A01 T02580115  RH  042%=      5-min Rain = 0
KANS 120500Z 16006KT 26/12 A3011 RMK A01 T02570115  RH  042%=      5-min Rain = 0

Page generated in 0.0092 seconds.